Terminal Aerodrome Forecast
Issued by NWS Pueblo, CO

Home | Current Version | Previous Version | Text Only | Print | Product List | Glossary On
Versions: 1 2 3 4 5 6 7 8 9 10 11 12 13 14 15 16 17 18 19 20 21 22 23 24 25 26 27 28 29 30 31 32 33 34 35 36 37 38 39 40 41 42 43 44 45 46 47 48 49 50
000
FTUS45 KPUB 011135
TAFCOS
TAF
KCOS 011135Z 0112/0212 35014KT P6SM VCSH SCT025 BKN080
     FM011400 36014G24KT P6SM SCT025 SCT090
     FM011800 02010KT P6SM FEW025
     FM012100 12008KT P6SM SCT040
     FM020000 09005KT P6SM FEW120
     FM020700 17007KT P6SM SCT100 BKN200=

USA.gov is the U.S. government's official web portal to all federal, state and local government web resources and services.